createdAt,value
2022-09-05T07:00:51.744Z,33.50
2022-09-05T07:03:42.350Z,33.80
2022-09-05T07:06:19.660Z,33.50
2022-09-05T07:08:53.957Z,33.10
2022-09-05T07:11:26.756Z,33.20
2022-09-05T07:14:02.153Z,33.50
2022-09-05T07:16:49.944Z,33.90
2022-09-05T07:19:26.929Z,33.70
2022-09-05T07:22:46.062Z,34.30
2022-09-05T07:25:08.681Z,34.80
2022-09-05T07:27:46.861Z,34.70
2022-09-05T07:30:29.116Z,35.30
2022-09-05T07:33:00.227Z,34.80
2022-09-05T07:35:31.216Z,34.70
2022-09-05T07:38:15.620Z,35.00
2022-09-05T07:40:51.627Z,34.10
2022-09-05T07:43:23.885Z,33.90
2022-09-05T07:46:06.267Z,35.20
2022-09-05T07:48:40.536Z,35.90
2022-09-05T07:56:36.327Z,37.10
2022-09-05T07:56:54.388Z,36.50
2022-09-05T07:57:26.961Z,36.40
2022-09-05T07:59:50.928Z,36.60
2022-09-05T08:02:19.311Z,36.60
2022-09-05T08:04:48.787Z,37.30
2022-09-05T08:07:49.562Z,36.90
2022-09-05T08:10:15.751Z,36.20
2022-09-05T08:13:23.827Z,36.00
2022-09-05T08:16:10.612Z,36.80
2022-09-05T08:18:37.751Z,36.90
2022-09-05T08:21:14.022Z,36.80
2022-09-05T08:23:52.187Z,36.90
2022-09-05T08:26:32.095Z,36.20
2022-09-05T08:29:06.895Z,36.40
2022-09-05T09:07:47.495Z,35.80
2022-09-05T09:10:04.365Z,35.80
2022-09-05T09:13:04.918Z,35.90
2022-09-05T09:15:38.513Z,36.40
2022-09-05T09:18:14.535Z,36.30
2022-09-05T09:20:52.825Z,36.80
2022-09-05T09:23:45.837Z,37.10
2022-09-05T09:26:17.307Z,37.20
2022-09-05T09:28:57.753Z,37.10
2022-09-05T09:31:37.594Z,36.00
2022-09-05T09:34:36.678Z,35.90
2022-09-05T09:37:16.502Z,36.50
2022-09-05T09:40:17.290Z,37.30
2022-09-05T09:45:35.791Z,36.50
2022-09-05T09:48:38.834Z,36.60
2022-09-05T09:51:22.871Z,34.70
2022-09-05T09:54:04.815Z,34.20
2022-09-05T09:57:17.139Z,32.60
2022-09-05T10:00:07.588Z,32.70
2022-09-05T10:05:30.151Z,32.50
2022-09-05T10:10:46.166Z,31.30
2022-09-05T10:10:46.166Z,30.30
2022-09-05T10:12:29.433Z,29.90
2022-09-05T10:15:20.962Z,29.30
2022-09-05T10:18:34.191Z,28.50
2022-09-05T10:21:34.409Z,28.30
2022-09-05T10:24:31.032Z,29.40
2022-09-05T10:27:21.498Z,29.90
2022-09-05T10:30:07.368Z,30.20
2022-09-05T10:35:08.290Z,30.30
2022-09-05T10:35:37.696Z,29.60
2022-09-05T10:38:11.648Z,29.20
2022-09-05T10:41:05.077Z,28.80
2022-09-05T10:43:32.622Z,28.50
2022-09-05T10:46:17.011Z,28.10
2022-09-05T10:48:56.589Z,27.80
2022-09-05T10:51:37.105Z,27.50
2022-09-05T11:07:07.460Z,27.00
2022-09-05T11:09:49.644Z,26.50
2022-09-05T11:12:34.306Z,26.40
2022-09-05T11:15:07.758Z,26.10
2022-09-05T11:17:40.937Z,26.00
2022-09-05T11:20:45.397Z,25.80
2022-09-05T11:23:19.257Z,25.70
2022-09-05T11:25:53.625Z,25.80
2022-09-05T11:28:47.712Z,25.70
2022-09-05T11:31:47.775Z,25.80
2022-09-05T11:39:50.727Z,25.60
2022-09-05T11:39:51.961Z,25.80
2022-09-05T11:41:46.718Z,25.50
2022-09-05T11:44:35.786Z,25.70
2022-09-05T11:47:35.027Z,26.10
2022-09-05T11:50:40.794Z,26.40
2022-09-05T11:53:41.724Z,26.80
2022-09-05T11:56:29.079Z,27.30
2022-09-05T11:59:35.725Z,27.50
2022-09-05T12:02:26.360Z,27.50
2022-09-05T12:05:48.666Z,27.70
2022-09-05T12:08:30.942Z,27.90
2022-09-05T12:11:11.589Z,27.70
2022-09-05T12:13:48.196Z,27.30
2022-09-05T12:16:43.820Z,26.90
2022-09-05T12:19:27.285Z,26.70
2022-09-05T12:22:23.652Z,26.70
2022-09-05T12:25:27.479Z,26.60
2022-09-05T12:29:29.555Z,26.60
2022-09-05T12:32:32.231Z,26.40
2022-09-05T12:36:06.180Z,26.30
2022-09-05T12:40:40.421Z,26.20
2022-09-05T12:41:32.915Z,26.10
2022-09-05T12:43:14.364Z,25.90
2022-09-05T12:45:44.546Z,25.70
2022-09-05T12:48:19.399Z,25.60
2022-09-05T12:50:57.977Z,25.60
2022-09-05T12:53:34.298Z,25.70
2022-09-05T12:56:44.302Z,25.60
2022-09-05T13:02:58.336Z,25.70
2022-09-05T13:03:07.067Z,25.50
2022-09-05T13:05:02.704Z,25.30
2022-09-05T13:07:40.355Z,25.40
2022-09-05T13:14:46.259Z,25.20
2022-09-05T13:14:49.095Z,25.10
2022-09-05T18:01:29.922Z,19.60
2022-09-05T18:04:08.339Z,19.10
2022-09-05T18:06:59.332Z,19.00
2022-09-05T18:09:59.101Z,18.90
2022-09-05T18:13:14.330Z,18.80
2022-09-05T18:16:04.868Z,18.80
2022-09-05T18:19:32.349Z,18.70
2022-09-05T18:21:49.550Z,18.60
2022-09-05T18:24:33.401Z,18.60
2022-09-05T18:27:30.978Z,18.60
2022-09-05T18:30:26.566Z,18.50
2022-09-05T18:33:53.837Z,18.70
2022-09-05T18:36:35.914Z,18.70
2022-09-05T18:39:42.497Z,18.60
2022-09-05T18:42:25.835Z,18.60
2022-09-05T18:45:15.502Z,18.70
2022-09-05T18:47:51.166Z,18.60
2022-09-05T18:50:28.629Z,18.60
2022-09-05T18:53:08.676Z,18.60
2022-09-05T18:56:11.126Z,18.60
2022-09-05T18:58:34.226Z,18.60
2022-09-05T19:01:32.258Z,18.50
2022-09-05T19:04:04.594Z,18.40
2022-09-05T19:06:37.921Z,18.30
2022-09-05T19:09:10.142Z,18.20
2022-09-05T19:11:53.134Z,18.30
2022-09-05T19:14:54.412Z,18.30
2022-09-05T19:17:27.403Z,18.30
2022-09-05T19:20:31.846Z,18.30
2022-09-05T19:23:09.678Z,18.30
2022-09-05T19:25:43.259Z,18.30
2022-09-05T19:36:49.723Z,18.20
2022-09-05T19:36:54.504Z,18.20
2022-09-05T19:36:56.444Z,18.10
2022-09-05T19:37:29.436Z,18.20
2022-09-05T19:45:47.324Z,18.20
2022-09-05T19:47:36.393Z,18.10
2022-09-05T19:47:38.912Z,18.20
2022-09-05T19:50:50.523Z,18.10
2022-09-05T19:53:20.903Z,18.20
2022-09-05T19:55:49.370Z,18.30
2022-09-05T19:58:21.319Z,18.40
2022-09-05T20:01:02.256Z,18.40
2022-09-05T20:03:37.156Z,18.40
2022-09-05T20:06:29.793Z,18.40
2022-09-05T20:09:10.543Z,18.40
2022-09-05T20:11:46.341Z,18.50
2022-09-05T20:14:36.643Z,18.40
2022-09-05T20:17:22.034Z,18.40
2022-09-05T20:19:50.660Z,18.40
2022-09-05T20:22:47.544Z,18.30
2022-09-05T20:25:35.560Z,18.20
2022-09-05T20:28:07.132Z,18.20
2022-09-05T20:30:44.036Z,18.20
2022-09-05T20:33:19.067Z,18.20
2022-09-05T20:37:46.136Z,18.30
2022-09-05T20:43:19.149Z,18.40
2022-09-05T20:43:27.018Z,18.40
2022-09-05T20:44:22.764Z,18.60
2022-09-05T20:53:18.974Z,18.60
2022-09-05T20:54:20.331Z,18.60
2022-09-05T20:54:24.999Z,18.60
2022-09-05T20:55:41.267Z,18.60
2022-09-05T20:58:12.591Z,18.60
2022-09-05T21:01:15.408Z,18.50
2022-09-05T21:03:43.565Z,18.50
2022-09-05T21:06:23.589Z,18.40
2022-09-05T21:08:54.701Z,18.40
2022-09-05T21:11:33.804Z,18.20
2022-09-05T21:14:04.900Z,18.20
2022-09-05T21:16:35.610Z,18.10
2022-09-05T21:19:05.508Z,18.00
2022-09-05T21:21:35.820Z,18.00
2022-09-05T21:24:16.728Z,17.90
2022-09-05T21:26:47.880Z,17.90
2022-09-05T21:29:17.643Z,17.80
2022-09-05T21:31:51.882Z,17.80
2022-09-05T21:34:28.462Z,17.70
2022-09-05T21:37:06.907Z,17.70
2022-09-05T21:39:40.200Z,17.60
2022-09-05T21:42:59.866Z,17.50
2022-09-05T21:47:43.656Z,17.60
2022-09-05T21:47:53.107Z,17.60
2022-09-05T21:50:30.521Z,17.70
2022-09-05T21:53:31.178Z,17.70
2022-09-05T21:59:24.480Z,17.80
2022-09-05T21:59:30.626Z,17.70
2022-09-05T22:01:51.950Z,17.60
2022-09-05T22:04:17.566Z,17.60
2022-09-05T22:06:48.364Z,17.50
2022-09-05T22:09:17.695Z,17.60
2022-09-05T22:11:50.273Z,17.50
2022-09-05T22:14:18.913Z,17.60
2022-09-05T22:16:48.515Z,17.60
2022-09-05T22:19:23.182Z,17.70
2022-09-05T22:21:55.702Z,17.70
2022-09-05T22:24:24.822Z,17.90
2022-09-05T22:27:12.351Z,17.90
2022-09-05T22:29:41.079Z,17.90
2022-09-05T22:32:09.331Z,18.00
2022-09-05T22:34:37.345Z,18.10
2022-09-05T22:37:09.144Z,18.10
2022-09-05T22:39:38.162Z,18.20
2022-09-05T22:42:10.871Z,18.10
2022-09-05T22:44:40.165Z,18.10
2022-09-05T22:47:09.048Z,18.10
2022-09-05T22:49:37.622Z,18.10
2022-09-05T22:52:08.741Z,18.00
2022-09-05T22:54:37.632Z,18.00
2022-09-05T22:57:06.314Z,18.00
2022-09-05T22:59:34.504Z,17.80
2022-09-05T23:02:02.832Z,17.70
2022-09-05T23:04:30.997Z,17.70
2022-09-05T23:07:03.239Z,17.60
2022-09-05T23:09:32.531Z,17.50
2022-09-05T23:12:00.848Z,17.30
2022-09-05T23:14:29.256Z,17.30
2022-09-05T23:16:57.133Z,17.10
2022-09-05T23:19:25.397Z,17.00
2022-09-05T23:21:53.557Z,16.90
2022-09-05T23:24:21.905Z,16.80
2022-09-05T23:26:51.560Z,16.70
2022-09-05T23:29:19.738Z,16.60
2022-09-05T23:31:48.240Z,16.50
2022-09-05T23:34:16.207Z,16.40
2022-09-05T23:36:44.240Z,16.30
2022-09-05T23:39:12.369Z,16.20
2022-09-05T23:41:40.304Z,16.10
2022-09-05T23:44:09.735Z,16.00
2022-09-05T23:46:38.292Z,15.90
2022-09-05T23:49:06.294Z,15.90
2022-09-05T23:51:34.224Z,15.80
2022-09-05T23:54:02.247Z,15.70
2022-09-05T23:56:30.298Z,15.60
2022-09-05T23:58:58.344Z,15.60
